Treetops, Michigan
Current Conditions -  °F | °C
As of 10:53 PM on Wednesday 26 Nov 2014 (Local Time) from KGLR Reporting Station
Overcast Overcast  
Wind Chill: 18°   Ceiling: 3400
Heat Index: 24°   Visibility: 10mi
Dew Point: 20°   Wind: 5mph
Humidity: 84%   Direction: 260°W
Pressure: 30.07"   Gusts: NA
Location:  44.9934°N, 84.6766°W
Report Text: KGLR 270353Z AUTO 26004KT 10SM OVC034 M04/M07 A3007 RMK AO2 SLP204 T10441067
Loading
Personal Weather Stations






























Interactive Weather Map New forecast layout! Learn more

10-Day Weather Forecast

Advertisements
Track Severe Weather on mobile